sensor_id;sensor_type;location;lat;lon;timestamp;pressure;altitude;pressure_sealevel;temperature;humidity
37634;BME280;32048;49.902;22.508;2023-07-29T00:01:40;98120.81;;;16.36;100.00
37634;BME280;32048;49.902;22.508;2023-07-29T00:04:08;98116.19;;;16.38;100.00
37634;BME280;32048;49.902;22.508;2023-07-29T00:06:36;98120.81;;;16.36;100.00
37634;BME280;32048;49.902;22.508;2023-07-29T00:09:03;98132.59;;;16.33;100.00
37634;BME280;32048;49.902;22.508;2023-07-29T00:11:31;98112.94;;;16.34;100.00
37634;BME280;32048;49.902;22.508;2023-07-29T00:14:01;98113.34;;;16.30;100.00
37634;BME280;32048;49.902;22.508;2023-07-29T00:16:28;98122.19;;;16.30;100.00
37634;BME280;32048;49.902;22.508;2023-07-29T00:18:56;98125.81;;;16.29;100.00
37634;BME280;32048;49.902;22.508;2023-07-29T00:21:23;98124.28;;;16.27;100.00
37634;BME280;32048;49.902;22.508;2023-07-29T00:23:50;98125.09;;;16.27;100.00
37634;BME280;32048;49.902;22.508;2023-07-29T00:26:17;98112.91;;;16.25;100.00
37634;BME280;32048;49.902;22.508;2023-07-29T00:28:44;98119.78;;;16.27;100.00
37634;BME280;32048;49.902;22.508;2023-07-29T00:31:11;98112.91;;;16.25;100.00
37634;BME280;32048;49.902;22.508;2023-07-29T00:33:38;98123.16;;;16.29;100.00
37634;BME280;32048;49.902;22.508;2023-07-29T00:36:06;98120.09;;;16.34;100.00
37634;BME280;32048;49.902;22.508;2023-07-29T00:38:33;98112.94;;;16.34;100.00
37634;BME280;32048;49.902;22.508;2023-07-29T00:41:01;98112.69;;;16.37;100.00
37634;BME280;32048;49.902;22.508;2023-07-29T00:43:29;98109.91;;;16.39;100.00
37634;BME280;32048;49.902;22.508;2023-07-29T00:45:56;98113.97;;;16.43;100.00
37634;BME280;32048;49.902;22.508;2023-07-29T00:48:25;98115.81;;;16.42;100.00
37634;BME280;32048;49.902;22.508;2023-07-29T00:50:54;98115.28;;;16.49;100.00
37634;BME280;32048;49.902;22.508;2023-07-29T00:53:21;98115.00;;;16.52;100.00
37634;BME280;32048;49.902;22.508;2023-07-29T00:55:49;98120.22;;;16.53;100.00
37634;BME280;32048;49.902;22.508;2023-07-29T00:58:15;98124.16;;;16.59;100.00
37634;BME280;32048;49.902;22.508;2023-07-29T01:00:43;98118.81;;;16.59;100.00
37634;BME280;32048;49.902;22.508;2023-07-29T01:03:10;98118.13;;;16.57;100.00
37634;BME280;32048;49.902;22.508;2023-07-29T01:08:46;98110.66;;;16.51;100.00
37634;BME280;32048;49.902;22.508;2023-07-29T01:11:48;98120.63;;;16.49;100.00
37634;BME280;32048;49.902;22.508;2023-07-29T01:14:36;98126.19;;;16.46;100.00
37634;BME280;32048;49.902;22.508;2023-07-29T01:17:08;98116.50;;;16.45;100.00
37634;BME280;32048;49.902;22.508;2023-07-29T01:20:02;98120.16;;;16.44;100.00
37634;BME280;32048;49.902;22.508;2023-07-29T01:22:34;98120.16;;;16.44;100.00
37634;BME280;32048;49.902;22.508;2023-07-29T01:25:02;98120.41;;;16.40;100.00
37634;BME280;32048;49.902;22.508;2023-07-29T01:27:30;98116.19;;;16.38;100.00
37634;BME280;32048;49.902;22.508;2023-07-29T01:29:58;98107.78;;;16.33;100.00
37634;BME280;32048;49.902;22.508;2023-07-29T01:37:38;98118.88;;;16.38;100.00
37634;BME280;32048;49.902;22.508;2023-07-29T01:40:07;98117.75;;;16.40;100.00
37634;BME280;32048;49.902;22.508;2023-07-29T01:42:35;98116.72;;;16.32;100.00
37634;BME280;32048;49.902;22.508;2023-07-29T01:45:03;98116.47;;;16.35;100.00
37634;BME280;32048;49.902;22.508;2023-07-29T01:47:30;98109.59;;;16.32;100.00
37634;BME280;32048;49.902;22.508;2023-07-29T01:49:57;98119.25;;;16.33;100.00
37634;BME280;32048;49.902;22.508;2023-07-29T01:52:24;98115.28;;;16.28;100.00
37634;BME280;32048;49.902;22.508;2023-07-29T01:54:51;98119.53;;;16.30;100.00
37634;BME280;32048;49.902;22.508;2023-07-29T01:57:18;98125.69;;;16.31;100.00
37634;BME280;32048;49.902;22.508;2023-07-29T01:59:45;98121.53;;;16.38;100.00
37634;BME280;32048;49.902;22.508;2023-07-29T02:02:12;98128.41;;;16.40;100.00
37634;BME280;32048;49.902;22.508;2023-07-29T02:04:39;98118.47;;;16.42;100.00
37634;BME280;32048;49.902;22.508;2023-07-29T02:07:07;98127.78;;;16.48;100.00
37634;BME280;32048;49.902;22.508;2023-07-29T02:09:33;98125.66;;;16.52;100.00
37634;BME280;32048;49.902;22.508;2023-07-29T02:12:01;98126.50;;;16.52;100.00
37634;BME280;32048;49.902;22.508;2023-07-29T02:14:28;98123.59;;;16.55;100.00
37634;BME280;32048;49.902;22.508;2023-07-29T02:16:55;98131.47;;;16.57;100.00
37634;BME280;32048;49.902;22.508;2023-07-29T02:19:22;98128.91;;;16.55;100.00
37634;BME280;32048;49.902;22.508;2023-07-29T02:21:49;98141.41;;;16.55;100.00
37634;BME280;32048;49.902;22.508;2023-07-29T02:24:16;98140.53;;;16.54;100.00
37634;BME280;32048;49.902;22.508;2023-07-29T02:26:43;98145.16;;;16.52;100.00
37634;BME280;32048;49.902;22.508;2023-07-29T02:29:10;98142.66;;;16.51;100.00
37634;BME280;32048;49.902;22.508;2023-07-29T02:31:37;98147.13;;;16.50;100.00
37634;BME280;32048;49.902;22.508;2023-07-29T02:34:05;98142.06;;;16.47;100.00
37634;BME280;32048;49.902;22.508;2023-07-29T02:36:32;98152.72;;;16.47;100.00
37634;BME280;32048;49.902;22.508;2023-07-29T02:38:59;98155.38;;;16.47;100.00
37634;BME280;32048;49.902;22.508;2023-07-29T02:41:26;98149.50;;;16.44;100.00
37634;BME280;32048;49.902;22.508;2023-07-29T02:43:53;98153.00;;;16.44;100.00
37634;BME280;32048;49.902;22.508;2023-07-29T02:46:20;98152.28;;;16.42;100.00
37634;BME280;32048;49.902;22.508;2023-07-29T02:48:47;98154.09;;;16.41;100.00
37634;BME280;32048;49.902;22.508;2023-07-29T02:51:14;98157.88;;;16.39;100.00
37634;BME280;32048;49.902;22.508;2023-07-29T02:53:41;98157.72;;;16.40;100.00
37634;BME280;32048;49.902;22.508;2023-07-29T02:56:09;98165.72;;;16.40;100.00
37634;BME280;32048;49.902;22.508;2023-07-29T02:58:37;98161.38;;;16.39;100.00
37634;BME280;32048;49.902;22.508;2023-07-29T03:01:05;98167.53;;;16.40;100.00
37634;BME280;32048;49.902;22.508;2023-07-29T03:03:33;98166.84;;;16.38;100.00
37634;BME280;32048;49.902;22.508;2023-07-29T03:06:03;98172.16;;;16.38;100.00
37634;BME280;32048;49.902;22.508;2023-07-29T03:08:30;98169.22;;;16.41;100.00
37634;BME280;32048;49.902;22.508;2023-07-29T03:10:57;98172.16;;;16.38;100.00
37634;BME280;32048;49.902;22.508;2023-07-29T03:13:24;98176.38;;;16.40;100.00
37634;BME280;32048;49.902;22.508;2023-07-29T03:15:52;98176.53;;;16.39;100.00
37634;BME280;32048;49.902;22.508;2023-07-29T03:18:19;98178.91;;;16.42;100.00
37634;BME280;32048;49.902;22.508;2023-07-29T03:20:48;98181.19;;;16.47;100.00
37634;BME280;32048;49.902;22.508;2023-07-29T03:23:15;98179.88;;;16.41;100.00
37634;BME280;32048;49.902;22.508;2023-07-29T03:25:42;98189.19;;;16.47;100.00
37634;BME280;32048;49.902;22.508;2023-07-29T03:28:09;98193.69;;;16.46;100.00
37634;BME280;32048;49.902;22.508;2023-07-29T03:30:37;98186.97;;;16.52;100.00
37634;BME280;32048;49.902;22.508;2023-07-29T03:33:03;98189.38;;;16.55;100.00
37634;BME280;32048;49.902;22.508;2023-07-29T03:35:31;98194.03;;;16.62;100.00
37634;BME280;32048;49.902;22.508;2023-07-29T03:37:58;98189.31;;;16.66;100.00
37634;BME280;32048;49.902;22.508;2023-07-29T03:40:25;98197.75;;;16.71;100.00
37634;BME280;32048;49.902;22.508;2023-07-29T03:42:52;98199.69;;;16.69;100.00
37634;BME280;32048;49.902;22.508;2023-07-29T03:45:19;98197.34;;;16.76;100.00
37634;BME280;32048;49.902;22.508;2023-07-29T03:47:46;98202.41;;;16.79;100.00
37634;BME280;32048;49.902;22.508;2023-07-29T03:50:14;98189.69;;;16.82;100.00
37634;BME280;32048;49.902;22.508;2023-07-29T03:52:41;98191.97;;;16.87;100.00
37634;BME280;32048;49.902;22.508;2023-07-29T03:55:08;98199.56;;;16.92;100.00
37634;BME280;32048;49.902;22.508;2023-07-29T03:57:35;98198.75;;;17.01;100.00
37634;BME280;32048;49.902;22.508;2023-07-29T04:00:02;98195.28;;;17.10;100.00
37634;BME280;32048;49.902;22.508;2023-07-29T04:02:30;98199.81;;;17.19;100.00
37634;BME280;32048;49.902;22.508;2023-07-29T04:04:57;98203.06;;;17.33;100.00
37634;BME280;32048;49.902;22.508;2023-07-29T04:07:24;98202.97;;;17.44;100.00
37634;BME280;32048;49.902;22.508;2023-07-29T04:09:51;98198.38;;;17.56;100.00
37634;BME280;32048;49.902;22.508;2023-07-29T04:12:18;98205.28;;;17.68;100.00
37634;BME280;32048;49.902;22.508;2023-07-29T04:14:48;98204.91;;;17.82;100.00
37634;BME280;32048;49.902;22.508;2023-07-29T04:17:16;98202.94;;;17.94;100.00
37634;BME280;32048;49.902;22.508;2023-07-29T04:19:43;98198.44;;;18.04;100.00
37634;BME280;32048;49.902;22.508;2023-07-29T04:22:10;98195.63;;;18.16;100.00
37634;BME280;32048;49.902;22.508;2023-07-29T04:24:37;98199.84;;;18.28;100.00
37634;BME280;32048;49.902;22.508;2023-07-29T04:27:04;98199.25;;;18.44;100.00
37634;BME280;32048;49.902;22.508;2023-07-29T04:29:32;98207.69;;;18.59;100.00
37634;BME280;32048;49.902;22.508;2023-07-29T04:31:59;98207.09;;;18.75;100.00
37634;BME280;32048;49.902;22.508;2023-07-29T04:34:28;98204.53;;;18.93;100.00
37634;BME280;32048;49.902;22.508;2023-07-29T04:36:55;98206.84;;;19.05;100.00
37634;BME280;32048;49.902;22.508;2023-07-29T04:39:23;98202.88;;;19.19;100.00
37634;BME280;32048;49.902;22.508;2023-07-29T04:41:49;98205.50;;;19.29;99.78
37634;BME280;32048;49.902;22.508;2023-07-29T04:44:17;98206.13;;;19.41;100.00
37634;BME280;32048;49.902;22.508;2023-07-29T04:46:44;98210.00;;;19.56;98.71
37634;BME280;32048;49.902;22.508;2023-07-29T04:49:11;98201.72;;;19.77;97.44
37634;BME280;32048;49.902;22.508;2023-07-29T04:51:38;98219.03;;;20.01;95.35
37634;BME280;32048;49.902;22.508;2023-07-29T04:54:05;98225.78;;;20.23;94.09
37634;BME280;32048;49.902;22.508;2023-07-29T04:56:32;98216.09;;;20.48;92.57
37634;BME280;32048;49.902;22.508;2023-07-29T04:58:59;98220.63;;;20.65;89.49
37634;BME280;32048;49.902;22.508;2023-07-29T05:01:26;98215.31;;;20.73;89.08
37634;BME280;32048;49.902;22.508;2023-07-29T05:03:54;98219.78;;;20.91;88.68
37634;BME280;32048;49.902;22.508;2023-07-29T05:06:21;98219.56;;;21.10;86.99
37634;BME280;32048;49.902;22.508;2023-07-29T05:08:48;98222.31;;;21.27;85.09
37634;BME280;32048;49.902;22.508;2023-07-29T05:11:15;98222.25;;;21.45;86.43
37634;BME280;32048;49.902;22.508;2023-07-29T05:13:42;98223.19;;;21.70;84.27
37634;BME280;32048;49.902;22.508;2023-07-29T05:16:10;98226.44;;;21.98;82.90
37634;BME280;32048;49.902;22.508;2023-07-29T05:18:37;98228.16;;;22.15;81.70
37634;BME280;32048;49.902;22.508;2023-07-29T05:21:04;98233.22;;;22.35;80.98
37634;BME280;32048;49.902;22.508;2023-07-29T05:23:32;98233.75;;;22.63;79.37
37634;BME280;32048;49.902;22.508;2023-07-29T05:25:58;98240.25;;;22.93;76.68
37634;BME280;32048;49.902;22.508;2023-07-29T05:28:26;98243.28;;;23.23;76.81
37634;BME280;32048;49.902;22.508;2023-07-29T05:30:53;98249.72;;;23.53;74.57
37634;BME280;32048;49.902;22.508;2023-07-29T05:33:20;98253.13;;;23.86;73.75
37634;BME280;32048;49.902;22.508;2023-07-29T05:35:47;98252.47;;;24.16;69.95
37634;BME280;32048;49.902;22.508;2023-07-29T05:38:14;98253.66;;;24.36;69.81
37634;BME280;32048;49.902;22.508;2023-07-29T05:40:41;98263.09;;;24.63;67.83
37634;BME280;32048;49.902;22.508;2023-07-29T05:43:08;98254.09;;;24.71;67.52
37634;BME280;32048;49.902;22.508;2023-07-29T05:45:35;98252.84;;;24.97;67.44
37634;BME280;32048;49.902;22.508;2023-07-29T05:48:02;98262.31;;;25.30;65.62
37634;BME280;32048;49.902;22.508;2023-07-29T05:50:29;98261.00;;;25.56;64.57
37634;BME280;32048;49.902;22.508;2023-07-29T05:52:57;98255.56;;;25.86;62.56
37634;BME280;32048;49.902;22.508;2023-07-29T05:55:23;98259.81;;;26.10;61.64
37634;BME280;32048;49.902;22.508;2023-07-29T05:57:51;98262.38;;;26.18;62.73
37634;BME280;32048;49.902;22.508;2023-07-29T06:00:18;98265.84;;;26.48;59.69
37634;BME280;32048;49.902;22.508;2023-07-29T06:02:45;98264.53;;;26.66;60.34
37634;BME280;32048;49.902;22.508;2023-07-29T06:05:12;98260.63;;;26.96;57.59
37634;BME280;32048;49.902;22.508;2023-07-29T06:07:39;98267.84;;;27.11;57.08
37634;BME280;32048;49.902;22.508;2023-07-29T06:10:13;98261.72;;;27.02;56.51
37634;BME280;32048;49.902;22.508;2023-07-29T06:12:40;98263.53;;;26.95;57.40
37634;BME280;32048;49.902;22.508;2023-07-29T06:15:08;98273.69;;;27.14;57.45
37634;BME280;32048;49.902;22.508;2023-07-29T06:17:35;98266.41;;;27.43;57.38
37634;BME280;32048;49.902;22.508;2023-07-29T06:20:02;98268.69;;;27.81;55.84
37634;BME280;32048;49.902;22.508;2023-07-29T06:22:30;98267.59;;;28.17;53.28
37634;BME280;32048;49.902;22.508;2023-07-29T06:24:57;98265.19;;;28.55;52.81
37634;BME280;32048;49.902;22.508;2023-07-29T06:27:24;98266.47;;;28.79;52.27
37634;BME280;32048;49.902;22.508;2023-07-29T06:29:52;98260.16;;;28.92;51.26
37634;BME280;32048;49.902;22.508;2023-07-29T06:32:19;98265.19;;;29.02;50.00
37634;BME280;32048;49.902;22.508;2023-07-29T06:34:46;98260.78;;;28.81;50.59
37634;BME280;32048;49.902;22.508;2023-07-29T06:37:13;98257.66;;;28.64;50.40
37634;BME280;32048;49.902;22.508;2023-07-29T06:39:40;98259.06;;;28.40;52.12
37634;BME280;32048;49.902;22.508;2023-07-29T06:42:07;98260.78;;;28.48;53.59
37634;BME280;32048;49.902;22.508;2023-07-29T06:44:34;98261.38;;;28.43;50.70
37634;BME280;32048;49.902;22.508;2023-07-29T06:47:01;98265.28;;;28.20;51.93
37634;BME280;32048;49.902;22.508;2023-07-29T06:49:28;98261.09;;;28.18;54.04
37634;BME280;32048;49.902;22.508;2023-07-29T06:51:55;98267.47;;;28.65;52.44
37634;BME280;32048;49.902;22.508;2023-07-29T06:54:25;98267.28;;;29.20;50.43
37634;BME280;32048;49.902;22.508;2023-07-29T06:56:55;98265.88;;;29.89;47.38
37634;BME280;32048;49.902;22.508;2023-07-29T06:59:22;98266.00;;;30.46;46.07
37634;BME280;32048;49.902;22.508;2023-07-29T07:01:51;98268.31;;;30.42;45.95
37634;BME280;32048;49.902;22.508;2023-07-29T07:04:18;98272.84;;;30.17;46.21
37634;BME280;32048;49.902;22.508;2023-07-29T07:06:45;98266.09;;;30.33;46.08
37634;BME280;32048;49.902;22.508;2023-07-29T07:09:12;98272.56;;;30.38;46.76
37634;BME280;32048;49.902;22.508;2023-07-29T07:11:40;98271.53;;;30.33;45.34
37634;BME280;32048;49.902;22.508;2023-07-29T07:14:07;98275.06;;;30.65;45.27
37634;BME280;32048;49.902;22.508;2023-07-29T07:16:34;98273.94;;;30.79;44.59
37634;BME280;32048;49.902;22.508;2023-07-29T07:19:03;98272.63;;;30.89;44.34
37634;BME280;32048;49.902;22.508;2023-07-29T07:21:31;98283.38;;;31.08;44.27
37634;BME280;32048;49.902;22.508;2023-07-29T07:23:59;98277.91;;;31.08;44.30
37634;BME280;32048;49.902;22.508;2023-07-29T07:26:26;98276.81;;;30.84;43.31
37634;BME280;32048;49.902;22.508;2023-07-29T07:28:53;98270.84;;;30.69;44.62
37634;BME280;32048;49.902;22.508;2023-07-29T07:31:22;98272.22;;;30.53;45.24
37634;BME280;32048;49.902;22.508;2023-07-29T07:33:49;98267.53;;;30.35;45.57
37634;BME280;32048;49.902;22.508;2023-07-29T07:36:16;98261.28;;;30.60;45.28
37634;BME280;32048;49.902;22.508;2023-07-29T07:38:43;98263.00;;;30.86;45.41
37634;BME280;32048;49.902;22.508;2023-07-29T07:41:10;98270.66;;;31.21;45.40
37634;BME280;32048;49.902;22.508;2023-07-29T07:43:37;98262.22;;;31.47;42.80
37634;BME280;32048;49.902;22.508;2023-07-29T07:46:05;98265.28;;;31.58;44.77
37634;BME280;32048;49.902;22.508;2023-07-29T07:48:32;98267.28;;;32.18;44.54
37634;BME280;32048;49.902;22.508;2023-07-29T07:51:00;98268.69;;;32.81;40.79
37634;BME280;32048;49.902;22.508;2023-07-29T07:53:27;98266.50;;;32.71;41.44
37634;BME280;32048;49.902;22.508;2023-07-29T07:55:54;98267.00;;;32.68;41.13
37634;BME280;32048;49.902;22.508;2023-07-29T07:58:21;98267.25;;;32.78;41.89
37634;BME280;32048;49.902;22.508;2023-07-29T08:01:33;98259.66;;;33.04;41.41
37634;BME280;32048;49.902;22.508;2023-07-29T08:04:18;98259.78;;;33.80;39.59
37634;BME280;32048;49.902;22.508;2023-07-29T08:06:45;98248.38;;;34.11;39.07
37634;BME280;32048;49.902;22.508;2023-07-29T08:09:12;98259.56;;;34.67;40.78
37634;BME280;32048;49.902;22.508;2023-07-29T08:11:39;98260.81;;;35.27;36.51
37634;BME280;32048;49.902;22.508;2023-07-29T08:14:06;98263.91;;;34.80;37.33
37634;BME280;32048;49.902;22.508;2023-07-29T08:16:33;98257.91;;;34.38;37.19
37634;BME280;32048;49.902;22.508;2023-07-29T08:19:01;98247.41;;;34.06;38.64
37634;BME280;32048;49.902;22.508;2023-07-29T08:21:28;98252.06;;;34.05;39.12
37634;BME280;32048;49.902;22.508;2023-07-29T08:23:55;98251.13;;;34.11;38.10
37634;BME280;32048;49.902;22.508;2023-07-29T08:26:22;98244.75;;;34.23;38.35
37634;BME280;32048;49.902;22.508;2023-07-29T08:28:49;98251.06;;;34.23;38.32
37634;BME280;32048;49.902;22.508;2023-07-29T08:31:20;98244.06;;;34.15;39.20
37634;BME280;32048;49.902;22.508;2023-07-29T08:33:47;98240.63;;;34.08;39.29
37634;BME280;32048;49.902;22.508;2023-07-29T08:36:15;98248.72;;;34.03;38.73
37634;BME280;32048;49.902;22.508;2023-07-29T08:38:42;98245.34;;;34.25;40.27
37634;BME280;32048;49.902;22.508;2023-07-29T08:41:25;98254.88;;;34.22;37.31
37634;BME280;32048;49.902;22.508;2023-07-29T08:43:58;98244.34;;;34.02;38.92
37634;BME280;32048;49.902;22.508;2023-07-29T08:46:32;98244.81;;;33.99;38.21
37634;BME280;32048;49.902;22.508;2023-07-29T08:49:03;98244.72;;;33.94;39.61
37634;BME280;32048;49.902;22.508;2023-07-29T08:51:31;98239.44;;;34.04;38.14
37634;BME280;32048;49.902;22.508;2023-07-29T08:53:59;98243.34;;;33.56;38.96
37634;BME280;32048;49.902;22.508;2023-07-29T08:56:26;98239.47;;;32.51;41.45
37634;BME280;32048;49.902;22.508;2023-07-29T08:58:54;98233.97;;;32.81;42.35
37634;BME280;32048;49.902;22.508;2023-07-29T09:01:22;98241.84;;;33.37;39.80
37634;BME280;32048;49.902;22.508;2023-07-29T09:03:49;98231.56;;;33.67;38.49
37634;BME280;32048;49.902;22.508;2023-07-29T09:06:16;98230.78;;;33.20;40.07
37634;BME280;32048;49.902;22.508;2023-07-29T09:08:45;98230.38;;;33.63;40.30
37634;BME280;32048;49.902;22.508;2023-07-29T09:11:15;98227.91;;;33.62;38.91
37634;BME280;32048;49.902;22.508;2023-07-29T09:13:43;98232.53;;;33.73;39.69
37634;BME280;32048;49.902;22.508;2023-07-29T09:16:11;98237.81;;;33.91;39.80
37634;BME280;32048;49.902;22.508;2023-07-29T09:18:38;98232.66;;;34.35;38.75
37634;BME280;32048;49.902;22.508;2023-07-29T09:21:05;98233.47;;;34.98;38.35
37634;BME280;32048;49.902;22.508;2023-07-29T09:23:43;98238.28;;;34.74;37.21
37634;BME280;32048;49.902;22.508;2023-07-29T09:26:10;98242.63;;;34.42;37.09
37634;BME280;32048;49.902;22.508;2023-07-29T09:28:38;98229.56;;;33.51;38.34
37634;BME280;32048;49.902;22.508;2023-07-29T09:31:06;98235.00;;;32.57;41.17
37634;BME280;32048;49.902;22.508;2023-07-29T09:33:34;98241.59;;;31.88;41.61
37634;BME280;32048;49.902;22.508;2023-07-29T09:36:10;98230.22;;;30.93;43.28
37634;BME280;32048;49.902;22.508;2023-07-29T09:38:37;98226.59;;;30.10;46.58
37634;BME280;32048;49.902;22.508;2023-07-29T09:41:05;98229.88;;;29.15;49.28
37634;BME280;32048;49.902;22.508;2023-07-29T09:43:33;98237.38;;;28.87;52.25
37634;BME280;32048;49.902;22.508;2023-07-29T09:46:02;98229.44;;;28.58;53.74
37634;BME280;32048;49.902;22.508;2023-07-29T09:48:33;98232.16;;;28.65;54.06
37634;BME280;32048;49.902;22.508;2023-07-29T09:51:14;98220.03;;;28.74;54.06
37634;BME280;32048;49.902;22.508;2023-07-29T09:53:46;98220.00;;;28.94;54.95
37634;BME280;32048;49.902;22.508;2023-07-29T09:56:15;98235.31;;;29.09;53.83
37634;BME280;32048;49.902;22.508;2023-07-29T09:58:43;98223.75;;;29.33;53.96
37634;BME280;32048;49.902;22.508;2023-07-29T10:01:13;98220.56;;;30.01;53.26
37634;BME280;32048;49.902;22.508;2023-07-29T10:03:41;98220.88;;;31.25;49.89
37634;BME280;32048;49.902;22.508;2023-07-29T10:06:09;98219.84;;;32.42;43.72
37634;BME280;32048;49.902;22.508;2023-07-29T10:08:39;98216.38;;;33.60;40.56
37634;BME280;32048;49.902;22.508;2023-07-29T10:11:07;98219.88;;;34.58;38.39
37634;BME280;32048;49.902;22.508;2023-07-29T10:13:35;98217.47;;;34.95;37.79
37634;BME280;32048;49.902;22.508;2023-07-29T10:16:03;98212.84;;;35.52;36.63
37634;BME280;32048;49.902;22.508;2023-07-29T10:18:33;98217.97;;;35.65;36.60
37634;BME280;32048;49.902;22.508;2023-07-29T10:21:01;98216.72;;;36.22;34.62
37634;BME280;32048;49.902;22.508;2023-07-29T10:23:34;98204.19;;;36.36;35.65
37634;BME280;32048;49.902;22.508;2023-07-29T10:26:04;98203.78;;;36.22;34.37
37634;BME280;32048;49.902;22.508;2023-07-29T10:28:32;98208.75;;;35.54;35.44
37634;BME280;32048;49.902;22.508;2023-07-29T10:31:00;98209.47;;;34.26;37.66
37634;BME280;32048;49.902;22.508;2023-07-29T10:33:27;98197.94;;;33.43;39.09
37634;BME280;32048;49.902;22.508;2023-07-29T10:35:54;98202.34;;;32.85;40.69
37634;BME280;32048;49.902;22.508;2023-07-29T10:38:23;98200.56;;;31.95;41.71
37634;BME280;32048;49.902;22.508;2023-07-29T10:40:53;98196.38;;;31.44;43.76
37634;BME280;32048;49.902;22.508;2023-07-29T10:43:38;98198.78;;;31.71;42.62
37634;BME280;32048;49.902;22.508;2023-07-29T10:48:54;98185.88;;;31.04;45.03
37634;BME280;32048;49.902;22.508;2023-07-29T10:53:57;98181.44;;;32.37;40.85
37634;BME280;32048;49.902;22.508;2023-07-29T10:56:39;98190.38;;;32.44;41.58
37634;BME280;32048;49.902;22.508;2023-07-29T11:01:40;98181.97;;;33.92;39.24
37634;BME280;32048;49.902;22.508;2023-07-29T11:09:41;98184.84;;;35.55;36.25
37634;BME280;32048;49.902;22.508;2023-07-29T11:12:43;98186.38;;;35.46;34.58
37634;BME280;32048;49.902;22.508;2023-07-29T11:20:25;98184.78;;;35.50;36.07
37634;BME280;32048;49.902;22.508;2023-07-29T11:22:54;98175.06;;;35.20;35.33
37634;BME280;32048;49.902;22.508;2023-07-29T11:25:23;98177.88;;;34.69;36.31
37634;BME280;32048;49.902;22.508;2023-07-29T11:27:53;98172.81;;;35.17;35.48
37634;BME280;32048;49.902;22.508;2023-07-29T11:30:20;98176.66;;;35.60;35.20
37634;BME280;32048;49.902;22.508;2023-07-29T11:32:47;98178.19;;;35.51;34.96
37634;BME280;32048;49.902;22.508;2023-07-29T11:35:16;98175.09;;;35.64;35.24
37634;BME280;32048;49.902;22.508;2023-07-29T11:37:47;98167.03;;;36.07;35.56
37634;BME280;32048;49.902;22.508;2023-07-29T11:40:19;98166.78;;;35.81;34.67
37634;BME280;32048;49.902;22.508;2023-07-29T11:42:48;98162.34;;;35.58;34.28
37634;BME280;32048;49.902;22.508;2023-07-29T11:45:18;98161.03;;;35.16;35.84
37634;BME280;32048;49.902;22.508;2023-07-29T11:47:45;98170.47;;;35.09;35.44
37634;BME280;32048;49.902;22.508;2023-07-29T11:50:14;98160.59;;;35.08;35.89
37634;BME280;32048;49.902;22.508;2023-07-29T11:52:44;98166.41;;;35.11;36.80
37634;BME280;32048;49.902;22.508;2023-07-29T11:55:13;98163.50;;;35.18;36.34
37634;BME280;32048;49.902;22.508;2023-07-29T11:57:42;98166.50;;;35.16;35.06
37634;BME280;32048;49.902;22.508;2023-07-29T12:00:10;98165.53;;;34.89;35.81
37634;BME280;32048;49.902;22.508;2023-07-29T12:02:41;98155.97;;;34.41;36.67
37634;BME280;32048;49.902;22.508;2023-07-29T12:05:14;98160.53;;;34.35;36.84
37634;BME280;32048;49.902;22.508;2023-07-29T12:08:02;98157.63;;;33.67;38.21
37634;BME280;32048;49.902;22.508;2023-07-29T12:10:30;98160.94;;;33.29;38.04
37634;BME280;32048;49.902;22.508;2023-07-29T12:12:57;98154.91;;;33.03;39.99
37634;BME280;32048;49.902;22.508;2023-07-29T12:15:26;98157.84;;;32.55;40.00
37634;BME280;32048;49.902;22.508;2023-07-29T12:17:55;98153.41;;;32.42;39.75
37634;BME280;32048;49.902;22.508;2023-07-29T12:20:24;98157.19;;;31.87;40.44
37634;BME280;32048;49.902;22.508;2023-07-29T12:22:55;98143.72;;;31.37;40.85
37634;BME280;32048;49.902;22.508;2023-07-29T12:25:23;98142.75;;;31.49;41.36
37634;BME280;32048;49.902;22.508;2023-07-29T12:27:51;98151.16;;;31.29;40.74
37634;BME280;32048;49.902;22.508;2023-07-29T12:30:21;98154.56;;;31.06;41.26
37634;BME280;32048;49.902;22.508;2023-07-29T12:32:52;98141.00;;;31.00;43.62
37634;BME280;32048;49.902;22.508;2023-07-29T12:35:19;98142.75;;;31.31;42.43
37634;BME280;32048;49.902;22.508;2023-07-29T12:37:47;98147.63;;;31.47;41.53
37634;BME280;32048;49.902;22.508;2023-07-29T12:40:21;98141.94;;;31.31;40.35
37634;BME280;32048;49.902;22.508;2023-07-29T12:42:50;98137.69;;;30.98;42.40
37634;BME280;32048;49.902;22.508;2023-07-29T12:45:18;98138.50;;;30.55;42.32
37634;BME280;32048;49.902;22.508;2023-07-29T12:47:45;98140.00;;;30.51;43.37
37634;BME280;32048;49.902;22.508;2023-07-29T12:50:13;98149.00;;;30.76;44.60
37634;BME280;32048;49.902;22.508;2023-07-29T12:52:40;98147.28;;;31.00;44.36
37634;BME280;32048;49.902;22.508;2023-07-29T12:55:07;98146.25;;;31.01;42.79
37634;BME280;32048;49.902;22.508;2023-07-29T12:57:41;98147.59;;;30.67;43.74
37634;BME280;32048;49.902;22.508;2023-07-29T13:00:10;98139.41;;;30.17;44.25
37634;BME280;32048;49.902;22.508;2023-07-29T13:02:38;98137.47;;;29.92;45.73
37634;BME280;32048;49.902;22.508;2023-07-29T13:05:05;98140.94;;;29.74;45.39
37634;BME280;32048;49.902;22.508;2023-07-29T13:07:33;98132.38;;;29.64;44.61
37634;BME280;32048;49.902;22.508;2023-07-29T13:10:00;98132.03;;;29.54;46.15
37634;BME280;32048;49.902;22.508;2023-07-29T13:12:27;98135.28;;;29.31;45.92
37634;BME280;32048;49.902;22.508;2023-07-29T13:14:54;98132.31;;;29.32;47.41
37634;BME280;32048;49.902;22.508;2023-07-29T13:17:22;98140.66;;;29.44;47.91
37634;BME280;32048;49.902;22.508;2023-07-29T13:19:50;98135.00;;;29.39;47.27